createdAt,value
2018-11-21T00:01:01.591Z,-2.60
2018-11-21T00:03:29.946Z,-2.60
2018-11-21T00:05:58.417Z,-2.70
2018-11-21T00:08:26.923Z,-2.70
2018-11-21T00:23:38.538Z,-2.90
2018-11-21T00:26:06.712Z,-2.90
2018-11-21T00:28:35.169Z,-2.90
2018-11-21T00:31:03.374Z,-3.00
2018-11-21T00:33:31.548Z,-3.00
2018-11-21T00:36:00.005Z,-3.00
2018-11-21T00:38:28.566Z,-3.10
2018-11-21T00:40:56.744Z,-3.00
2018-11-21T00:43:24.933Z,-3.00
2018-11-21T00:45:53.127Z,-3.00
2018-11-21T00:48:21.320Z,-3.00
2018-11-21T00:50:49.502Z,-3.00
2018-11-21T00:53:17.732Z,-3.00
2018-11-21T00:55:46.194Z,-3.10
2018-11-21T00:58:14.413Z,-3.10
2018-11-21T01:00:42.601Z,-3.20
2018-11-21T01:03:11.114Z,-3.20
2018-11-21T01:05:39.309Z,-3.20
2018-11-21T01:08:07.536Z,-3.20
2018-11-21T01:10:35.757Z,-3.20
2018-11-21T01:13:04.048Z,-3.20
2018-11-21T01:15:32.254Z,-3.20
2018-11-21T01:18:00.449Z,-3.30
2018-11-21T01:20:28.920Z,-3.30
2018-11-21T01:22:57.109Z,-3.30
2018-11-21T01:25:25.359Z,-3.30
2018-11-21T01:27:53.545Z,-3.30
2018-11-21T01:30:22.053Z,-3.30
2018-11-21T01:32:50.236Z,-3.30
2018-11-21T01:35:18.781Z,-3.30
2018-11-21T01:37:46.997Z,-3.30
2018-11-21T01:40:15.184Z,-3.30
2018-11-21T01:42:43.393Z,-3.30
2018-11-21T01:45:11.589Z,-3.30
2018-11-21T01:47:39.767Z,-3.40
2018-11-21T01:50:08.896Z,-3.40
2018-11-21T01:52:37.348Z,-3.50
2018-11-21T01:55:05.600Z,-3.40
2018-11-21T01:57:34.131Z,-3.40
2018-11-21T02:00:02.599Z,-3.40
2018-11-21T02:02:31.129Z,-3.40
2018-11-21T02:04:59.652Z,-3.40
2018-11-21T02:07:27.840Z,-3.40
2018-11-21T02:09:56.370Z,-3.50
2018-11-21T02:12:24.569Z,-3.50
2018-11-21T02:14:52.758Z,-3.50
2018-11-21T02:17:21.259Z,-3.50
2018-11-21T02:19:49.484Z,-3.60
2018-11-21T02:22:18.019Z,-3.60
2018-11-21T02:24:46.557Z,-3.60
2018-11-21T02:27:14.751Z,-3.60
2018-11-21T02:29:42.967Z,-3.60
2018-11-21T02:32:11.146Z,-3.60
2018-11-21T02:34:39.687Z,-3.60
2018-11-21T02:37:08.757Z,-3.70
2018-11-21T02:39:37.387Z,-3.70
2018-11-21T02:42:05.629Z,-3.80
2018-11-21T02:44:33.853Z,-3.80
2018-11-21T02:47:02.048Z,-3.80
2018-11-21T02:49:30.231Z,-3.80
2018-11-21T02:51:59.244Z,-3.90
2018-11-21T02:54:27.487Z,-3.90
2018-11-21T02:57:22.283Z,-3.90
2018-11-21T02:59:52.612Z,-3.90
2018-11-21T03:02:20.825Z,-3.90
2018-11-21T03:04:49.038Z,-3.90
2018-11-21T03:07:17.212Z,-3.90
2018-11-21T03:09:45.391Z,-3.90
2018-11-21T03:12:13.864Z,-3.90
2018-11-21T03:14:42.433Z,-3.80
2018-11-21T03:17:10.626Z,-3.90
2018-11-21T03:19:38.822Z,-3.90
2018-11-21T03:22:07.274Z,-3.80
2018-11-21T03:24:35.475Z,-3.80
2018-11-21T03:27:03.673Z,-3.90
2018-11-21T03:29:32.205Z,-3.90
2018-11-21T03:32:00.388Z,-3.90
2018-11-21T03:34:28.589Z,-4.00
2018-11-21T03:36:56.796Z,-4.00
2018-11-21T03:39:25.859Z,-4.00
2018-11-21T03:41:54.037Z,-4.10
2018-11-21T03:44:23.398Z,-4.10
2018-11-21T03:46:51.619Z,-4.10
2018-11-21T03:49:19.772Z,-4.10
2018-11-21T03:51:48.333Z,-4.10
2018-11-21T03:54:16.524Z,-4.10
2018-11-21T03:56:44.743Z,-4.10
2018-11-21T03:59:12.940Z,-4.20
2018-11-21T04:01:41.171Z,-4.20
2018-11-21T04:04:09.781Z,-4.20
2018-11-21T04:06:38.334Z,-4.20
2018-11-21T04:09:11.335Z,-4.20
2018-11-21T04:11:39.578Z,-4.20
2018-11-21T04:14:08.074Z,-4.20
2018-11-21T04:16:36.627Z,-4.20
2018-11-21T04:19:04.894Z,-4.20
2018-11-21T04:21:33.084Z,-4.20
2018-11-21T04:24:01.282Z,-4.20
2018-11-21T04:26:29.845Z,-4.20
2018-11-21T04:28:58.363Z,-4.20
2018-11-21T04:31:26.910Z,-4.10
2018-11-21T04:33:55.100Z,-4.10
2018-11-21T04:36:23.277Z,-4.10
2018-11-21T04:38:51.727Z,-4.10
2018-11-21T04:41:20.167Z,-4.20
2018-11-21T04:43:48.356Z,-4.20
2018-11-21T04:46:16.589Z,-4.20
2018-11-21T04:48:44.768Z,-4.30
2018-11-21T04:51:12.956Z,-4.30
2018-11-21T04:53:41.524Z,-4.30
2018-11-21T04:56:10.062Z,-4.30
2018-11-21T04:58:38.249Z,-4.30
2018-11-21T05:01:06.481Z,-4.40
2018-11-21T05:03:35.029Z,-4.40
2018-11-21T05:06:03.597Z,-4.40
2018-11-21T05:08:32.435Z,-4.40
2018-11-21T05:11:00.609Z,-4.50
2018-11-21T05:13:28.818Z,-4.40
2018-11-21T05:15:57.010Z,-4.40
2018-11-21T05:18:25.548Z,-4.40
2018-11-21T05:20:53.724Z,-4.40
2018-11-21T05:23:21.950Z,-4.40
2018-11-21T05:25:50.200Z,-4.40
2018-11-21T05:28:18.716Z,-4.40
2018-11-21T05:30:47.290Z,-4.40
2018-11-21T05:33:15.812Z,-4.40
2018-11-21T05:35:44.303Z,-4.40
2018-11-21T05:38:12.846Z,-4.40
2018-11-21T05:40:41.389Z,-4.40
2018-11-21T05:43:09.573Z,-4.30
2018-11-21T05:45:38.129Z,-4.30
2018-11-21T05:48:07.000Z,-4.40
2018-11-21T05:50:35.207Z,-4.40
2018-11-21T05:53:03.423Z,-4.40
2018-11-21T05:55:31.591Z,-4.40
2018-11-21T05:58:00.471Z,-4.40
2018-11-21T06:00:28.657Z,-4.50
2018-11-21T06:02:56.875Z,-4.50
2018-11-21T06:05:25.462Z,-4.60
2018-11-21T06:07:53.898Z,-4.60
2018-11-21T06:10:22.424Z,-4.60
2018-11-21T06:12:50.598Z,-4.60
2018-11-21T06:15:19.048Z,-4.60
2018-11-21T06:17:48.282Z,-4.60
2018-11-21T06:20:16.133Z,-4.60
2018-11-21T06:22:45.084Z,-4.70
2018-11-21T06:25:13.676Z,-4.70
2018-11-21T06:27:41.884Z,-4.70
2018-11-21T06:30:11.649Z,-4.70
2018-11-21T06:32:40.181Z,-4.70
2018-11-21T06:35:09.610Z,-4.60
2018-11-21T06:37:38.180Z,-4.60
2018-11-21T06:40:08.945Z,-4.60
2018-11-21T06:42:37.132Z,-4.60
2018-11-21T06:45:07.288Z,-4.60
2018-11-21T06:47:35.767Z,-4.60
2018-11-21T06:50:04.161Z,-4.60
2018-11-21T06:52:32.389Z,-4.60
2018-11-21T06:55:00.573Z,-4.60
2018-11-21T06:57:28.776Z,-4.60
2018-11-21T06:59:56.972Z,-4.50
2018-11-21T07:02:25.427Z,-4.50
2018-11-21T07:04:54.262Z,-4.50
2018-11-21T07:07:22.438Z,-4.40
2018-11-21T07:09:50.621Z,-4.30
2018-11-21T07:12:19.079Z,-4.30
2018-11-21T07:14:47.657Z,-4.20
2018-11-21T07:17:15.831Z,-4.10
2018-11-21T07:19:44.296Z,-4.10
2018-11-21T07:22:12.804Z,-4.00
2018-11-21T07:24:40.993Z,-3.90
2018-11-21T07:27:09.467Z,-3.90
2018-11-21T07:29:37.668Z,-3.80
2018-11-21T07:32:06.413Z,-3.80
2018-11-21T07:34:34.649Z,-3.70
2018-11-21T07:37:02.836Z,-3.70
2018-11-21T07:39:31.369Z,-3.60
2018-11-21T07:42:00.192Z,-3.50
2018-11-21T07:44:28.362Z,-3.40
2018-11-21T07:46:56.670Z,-3.20
2018-11-21T07:49:25.198Z,-3.00
2018-11-21T07:51:53.404Z,-2.70
2018-11-21T07:54:21.960Z,-2.50
2018-11-21T07:57:30.802Z,-2.30
2018-11-21T08:00:44.582Z,-2.10
2018-11-21T08:03:13.037Z,-1.80
2018-11-21T08:05:44.374Z,-1.60
2018-11-21T08:08:29.768Z,-1.40
2018-11-21T08:11:35.146Z,-1.20
2018-11-21T08:14:33.421Z,-1.10
2018-11-21T08:17:12.533Z,-0.80
2018-11-21T08:20:00.691Z,-0.70
2018-11-21T08:22:46.607Z,-0.50
2018-11-21T08:25:39.950Z,-0.30
2018-11-21T08:28:26.355Z,-0.20
2018-11-21T08:30:54.628Z,0.00
2018-11-21T08:33:22.795Z,0.20
2018-11-21T08:35:51.015Z,0.30
2018-11-21T08:38:19.229Z,0.40
2018-11-21T08:40:47.444Z,0.50
2018-11-21T08:43:15.943Z,0.60
2018-11-21T08:45:44.692Z,0.70
2018-11-21T08:48:13.862Z,0.80
2018-11-21T08:50:42.076Z,0.80
2018-11-21T08:53:10.562Z,0.80
2018-11-21T08:55:38.811Z,0.90
2018-11-21T08:58:07.584Z,0.90
2018-11-21T09:00:35.786Z,1.00
2018-11-21T09:03:04.505Z,1.00
2018-11-21T09:05:32.743Z,1.10
2018-11-21T09:08:00.976Z,1.10
2018-11-21T09:12:57.052Z,1.40
2018-11-21T09:15:25.267Z,1.60
2018-11-21T09:17:53.434Z,1.70
2018-11-21T09:20:21.599Z,1.90
2018-11-21T09:22:49.792Z,2.00
2018-11-21T09:25:18.323Z,2.20
2018-11-21T09:27:46.845Z,2.30
2018-11-21T09:30:16.424Z,2.40
2018-11-21T09:32:45.364Z,2.40
2018-11-21T09:35:15.159Z,2.50
2018-11-21T09:37:43.354Z,2.60
2018-11-21T09:40:13.399Z,2.60
2018-11-21T09:42:42.761Z,2.60
2018-11-21T09:45:12.382Z,2.60
2018-11-21T09:47:40.650Z,2.70
2018-11-21T09:50:11.070Z,2.80
2018-11-21T09:52:39.264Z,2.80
2018-11-21T09:55:08.025Z,2.90
2018-11-21T09:57:36.249Z,2.90
2018-11-21T10:00:43.241Z,3.00
2018-11-21T10:03:13.595Z,3.00
2018-11-21T10:05:42.240Z,3.00
2018-11-21T10:08:55.283Z,3.00
2018-11-21T10:11:23.499Z,3.00
2018-11-21T10:13:51.687Z,3.00
2018-11-21T10:16:19.909Z,3.10
2018-11-21T10:18:49.711Z,3.10
2018-11-21T10:21:22.114Z,3.20
2018-11-21T10:23:50.337Z,3.20
2018-11-21T10:26:18.527Z,3.20
2018-11-21T10:28:47.425Z,3.30
2018-11-21T10:31:15.911Z,3.30
2018-11-21T10:33:44.079Z,3.40
2018-11-21T10:36:12.257Z,3.40
2018-11-21T10:38:40.464Z,3.50
2018-11-21T10:41:09.045Z,3.60
2018-11-21T10:43:37.934Z,3.60
2018-11-21T10:46:06.507Z,3.60
2018-11-21T10:48:34.743Z,3.60
2018-11-21T10:51:03.556Z,3.60
2018-11-21T10:53:32.100Z,3.60
2018-11-21T10:56:00.315Z,3.60
2018-11-21T10:58:28.520Z,3.60
2018-11-21T11:01:14.483Z,3.60
2018-11-21T11:04:03.277Z,3.70
2018-11-21T11:06:49.621Z,3.70
2018-11-21T11:09:34.238Z,3.70
2018-11-21T11:12:20.240Z,3.70
2018-11-21T11:15:10.232Z,3.70
2018-11-21T11:18:00.612Z,3.70
2018-11-21T11:20:54.036Z,3.70
2018-11-21T11:23:37.972Z,3.70
2018-11-21T11:26:28.339Z,3.60
2018-11-21T11:29:18.590Z,3.60
2018-11-21T11:32:06.030Z,3.60
2018-11-21T11:34:52.267Z,3.70
2018-11-21T11:37:38.237Z,3.70
2018-11-21T11:40:33.195Z,3.70
2018-11-21T11:43:22.607Z,3.70
2018-11-21T11:46:24.794Z,3.70
2018-11-21T11:49:05.406Z,3.70
2018-11-21T11:51:51.281Z,3.70
2018-11-21T11:54:35.755Z,3.70
2018-11-21T11:57:38.217Z,3.70
2018-11-21T12:00:17.903Z,3.80
2018-11-21T12:02:54.046Z,3.80
2018-11-21T12:05:40.544Z,3.70
2018-11-21T12:08:37.394Z,3.70
2018-11-21T12:11:22.414Z,3.60
2018-11-21T12:14:08.199Z,3.60
2018-11-21T12:16:54.775Z,3.60
2018-11-21T12:19:40.733Z,3.60
2018-11-21T12:22:37.011Z,3.50
2018-11-21T12:25:43.647Z,3.50
2018-11-21T12:28:30.192Z,3.50
2018-11-21T12:31:16.278Z,3.50
2018-11-21T12:34:12.323Z,3.60
2018-11-21T12:36:58.142Z,3.60
2018-11-21T12:39:51.227Z,3.60
2018-11-21T12:42:53.600Z,3.60
2018-11-21T12:45:46.844Z,3.60
2018-11-21T12:48:49.335Z,3.60
2018-11-21T12:51:42.300Z,3.50
2018-11-21T12:54:16.506Z,3.50
2018-11-21T12:57:08.342Z,3.50
2018-11-21T12:59:48.274Z,3.50
2018-11-21T13:02:41.450Z,3.50
2018-11-21T13:05:32.058Z,3.50
2018-11-21T13:08:18.196Z,3.40
2018-11-21T13:11:03.984Z,3.50
2018-11-21T13:13:57.573Z,3.50
2018-11-21T13:16:38.251Z,3.60
2018-11-21T13:19:24.424Z,3.50
2018-11-21T13:22:10.530Z,3.60
2018-11-21T13:24:57.013Z,3.60
2018-11-21T13:27:44.386Z,3.60
2018-11-21T13:30:32.135Z,3.60
2018-11-21T13:33:19.882Z,3.60
2018-11-21T13:35:54.267Z,3.60
2018-11-21T13:38:40.318Z,3.60
2018-11-21T13:41:17.546Z,3.60
2018-11-21T13:44:10.777Z,3.60
2018-11-21T13:46:57.273Z,3.60
2018-11-21T13:49:54.027Z,3.60
2018-11-21T13:52:41.478Z,3.50
2018-11-21T13:55:09.668Z,3.50
2018-11-21T13:57:37.870Z,3.40
2018-11-21T14:00:09.351Z,3.40
2018-11-21T14:02:37.539Z,3.40
2018-11-21T14:05:07.936Z,3.40
2018-11-21T14:07:36.148Z,3.30
2018-11-21T14:10:06.766Z,3.20
2018-11-21T14:12:34.957Z,3.20
2018-11-21T14:15:03.207Z,3.10
2018-11-21T14:17:31.375Z,3.10
2018-11-21T14:19:59.958Z,3.00
2018-11-21T14:22:28.156Z,3.00
2018-11-21T14:24:56.702Z,3.00
2018-11-21T14:27:25.305Z,3.00
2018-11-21T14:29:53.795Z,2.90
2018-11-21T14:32:21.991Z,3.00
2018-11-21T14:34:50.167Z,2.90
2018-11-21T14:37:18.401Z,2.90
2018-11-21T14:39:46.593Z,2.90
2018-11-21T14:42:14.802Z,2.90
2018-11-21T14:44:43.043Z,2.80
2018-11-21T14:47:13.531Z,2.80
2018-11-21T14:49:42.196Z,2.80
2018-11-21T14:52:29.801Z,2.80
2018-11-21T15:01:17.557Z,2.70
2018-11-21T15:04:05.184Z,2.70
2018-11-21T15:09:53.202Z,2.70
2018-11-21T15:12:41.080Z,2.70
2018-11-21T15:15:28.717Z,2.70
2018-11-21T15:18:16.592Z,2.60
2018-11-21T15:24:04.189Z,2.60
2018-11-21T15:29:51.633Z,2.60
2018-11-21T15:32:39.288Z,2.50
2018-11-21T15:35:26.932Z,2.50
2018-11-21T15:38:14.549Z,2.50
2018-11-21T15:41:02.147Z,2.50
2018-11-21T15:46:50.541Z,2.50
2018-11-21T15:49:38.151Z,2.40
2018-11-21T15:52:26.055Z,2.40
2018-11-21T15:55:15.015Z,2.40
2018-11-21T15:58:02.645Z,2.40
2018-11-21T16:00:50.258Z,2.40
2018-11-21T16:03:37.873Z,2.40
2018-11-21T16:06:25.485Z,2.40
2018-11-21T16:09:13.187Z,2.40
2018-11-21T16:12:01.079Z,2.40
2018-11-21T16:14:48.752Z,2.40
2018-11-21T16:20:43.734Z,2.40
2018-11-21T16:23:31.363Z,2.40
2018-11-21T16:26:19.272Z,2.40
2018-11-21T16:29:06.893Z,2.40
2018-11-21T16:31:54.506Z,2.40
2018-11-21T16:34:42.212Z,2.40
2018-11-21T16:37:29.816Z,2.40
2018-11-21T16:40:19.180Z,2.40
2018-11-21T16:49:07.430Z,2.40
2018-11-21T16:51:55.086Z,2.40
2018-11-21T16:54:42.992Z,2.40
2018-11-21T16:57:30.909Z,2.40
2018-11-21T17:00:20.131Z,2.40
2018-11-21T17:03:07.789Z,2.40
2018-11-21T17:05:55.405Z,2.40
2018-11-21T17:08:43.021Z,2.40
2018-11-21T17:11:30.634Z,2.40
2018-11-21T17:17:18.079Z,2.40
2018-11-21T17:20:07.466Z,2.40
2018-11-21T17:22:56.102Z,2.40
2018-11-21T17:25:44.270Z,2.40
2018-11-21T17:28:31.898Z,2.40
2018-11-21T17:31:19.515Z,2.40
2018-11-21T17:40:11.541Z,2.50
2018-11-21T17:42:59.439Z,2.50
2018-11-21T17:45:47.070Z,2.50
2018-11-21T17:48:34.715Z,2.50
2018-11-21T17:51:26.549Z,2.50
2018-11-21T17:54:10.228Z,2.50
2018-11-21T17:56:57.879Z,2.50
2018-11-21T17:59:45.789Z,2.50
2018-11-21T18:02:33.691Z,2.50
2018-11-21T18:08:23.413Z,2.50
2018-11-21T18:11:11.004Z,2.50
2018-11-21T18:13:58.633Z,2.50
2018-11-21T18:16:46.251Z,2.50
2018-11-21T18:19:33.902Z,2.40
2018-11-21T18:22:21.516Z,2.50
2018-11-21T18:25:10.878Z,2.50
2018-11-21T18:27:58.710Z,2.50
2018-11-21T18:30:46.346Z,2.50
2018-11-21T18:33:33.947Z,2.50
2018-11-21T18:36:21.641Z,2.50
2018-11-21T18:39:09.928Z,2.50
2018-11-21T18:41:58.140Z,2.50
2018-11-21T18:44:45.490Z,2.50
2018-11-21T18:50:32.895Z,2.50
2018-11-21T18:53:20.803Z,2.50
2018-11-21T18:56:27.872Z,2.50
2018-11-21T19:02:17.155Z,2.50
2018-11-21T19:05:05.181Z,2.50
2018-11-21T19:07:52.788Z,2.50
2018-11-21T19:10:40.708Z,2.50
2018-11-21T19:13:08.941Z,2.50
2018-11-21T19:15:37.112Z,2.50
2018-11-21T19:18:05.499Z,2.50
2018-11-21T19:20:33.703Z,2.50
2018-11-21T19:23:01.913Z,2.50
2018-11-21T19:25:30.106Z,2.60
2018-11-21T19:27:58.277Z,2.60
2018-11-21T19:30:26.471Z,2.60
2018-11-21T19:32:54.704Z,2.50
2018-11-21T19:35:23.183Z,2.60
2018-11-21T19:37:51.435Z,2.60
2018-11-21T19:40:19.624Z,2.60
2018-11-21T19:42:48.343Z,2.60
2018-11-21T19:45:17.297Z,2.60
2018-11-21T19:47:45.531Z,2.60
2018-11-21T19:50:15.540Z,2.60
2018-11-21T19:52:44.722Z,2.60
2018-11-21T19:55:14.913Z,2.60
2018-11-21T19:57:43.499Z,2.60
2018-11-21T20:00:14.609Z,2.60
2018-11-21T20:02:42.832Z,2.60
2018-11-21T20:05:11.076Z,2.60
2018-11-21T20:07:40.223Z,2.60
2018-11-21T20:10:09.216Z,2.60
2018-11-21T20:12:40.108Z,2.60
2018-11-21T20:15:07.985Z,2.60
2018-11-21T20:17:36.558Z,2.60
2018-11-21T20:20:07.068Z,2.60
2018-11-21T20:22:35.296Z,2.60
2018-11-21T20:25:03.591Z,2.60
2018-11-21T20:27:31.793Z,2.60
2018-11-21T20:30:00.605Z,2.60
2018-11-21T20:32:28.841Z,2.60
2018-11-21T20:34:57.028Z,2.60
2018-11-21T20:37:25.270Z,2.60
2018-11-21T20:39:59.209Z,2.60
2018-11-21T20:42:27.321Z,2.60
2018-11-21T20:44:56.077Z,2.60
2018-11-21T20:47:24.289Z,2.60
2018-11-21T20:49:52.516Z,2.60
2018-11-21T20:52:20.725Z,2.60
2018-11-21T20:54:48.989Z,2.50
2018-11-21T20:57:17.536Z,2.50
2018-11-21T20:59:45.720Z,2.50
2018-11-21T21:02:14.192Z,2.50
2018-11-21T21:04:42.649Z,2.50
2018-11-21T21:07:10.868Z,2.50
2018-11-21T21:09:39.060Z,2.50
2018-11-21T21:12:07.865Z,2.50
2018-11-21T21:14:36.061Z,2.50
2018-11-21T21:17:04.287Z,2.50
2018-11-21T21:19:32.744Z,2.50
2018-11-21T21:22:01.239Z,2.50
2018-11-21T21:24:29.430Z,2.50
2018-11-21T21:26:57.964Z,2.50
2018-11-21T21:29:26.485Z,2.50
2018-11-21T21:31:54.665Z,2.50
2018-11-21T21:34:22.827Z,2.50
2018-11-21T21:36:51.291Z,2.50
2018-11-21T21:39:19.476Z,2.50
2018-11-21T21:41:47.930Z,2.50
2018-11-21T21:44:16.859Z,2.50
2018-11-21T21:46:45.101Z,2.50
2018-11-21T21:49:13.602Z,2.50
2018-11-21T21:51:41.813Z,2.50
2018-11-21T21:54:09.997Z,2.50
2018-11-21T21:56:38.198Z,2.50
2018-11-21T21:59:06.390Z,2.50
2018-11-21T22:01:34.599Z,2.50
2018-11-21T22:04:03.301Z,2.50
2018-11-21T22:06:31.855Z,2.50
2018-11-21T22:09:00.689Z,2.50
2018-11-21T22:11:28.872Z,2.50
2018-11-21T22:13:57.055Z,2.50
2018-11-21T22:16:25.585Z,2.50
2018-11-21T22:18:54.122Z,2.50
2018-11-21T22:21:22.642Z,2.50
2018-11-21T22:23:50.859Z,2.50
2018-11-21T22:26:19.071Z,2.50
2018-11-21T22:28:47.567Z,2.50
2018-11-21T22:31:15.753Z,2.50
2018-11-21T22:33:43.967Z,2.50
2018-11-21T22:36:12.184Z,2.50
2018-11-21T22:38:41.077Z,2.50
2018-11-21T22:41:09.263Z,2.50
2018-11-21T22:43:37.471Z,2.50
2018-11-21T22:46:06.224Z,2.50
2018-11-21T22:48:34.686Z,2.50
2018-11-21T22:51:03.484Z,2.50
2018-11-21T22:53:32.023Z,2.50
2018-11-21T22:56:00.571Z,2.50
2018-11-21T22:58:28.760Z,2.50
2018-11-21T23:00:56.931Z,2.50
2018-11-21T23:03:25.119Z,2.50
2018-11-21T23:05:53.328Z,2.50
2018-11-21T23:08:21.527Z,2.50
2018-11-21T23:10:50.033Z,2.50
2018-11-21T23:13:18.902Z,2.50
2018-11-21T23:15:47.121Z,2.50
2018-11-21T23:18:15.292Z,2.60
2018-11-21T23:20:43.481Z,2.50
2018-11-21T23:23:11.995Z,2.60
2018-11-21T23:25:40.164Z,2.60
2018-11-21T23:28:08.633Z,2.50
2018-11-21T23:30:36.801Z,2.60
2018-11-21T23:33:05.549Z,2.50
2018-11-21T23:35:33.727Z,2.50
2018-11-21T23:38:02.483Z,2.50
2018-11-21T23:40:30.929Z,2.50
2018-11-21T23:42:59.113Z,2.50
2018-11-21T23:45:27.338Z,2.60
2018-11-21T23:47:55.507Z,2.60
2018-11-21T23:50:23.699Z,2.60
2018-11-21T23:52:51.887Z,2.60
2018-11-21T23:55:20.336Z,2.60
2018-11-21T23:57:48.506Z,2.60
